createdAt,value
2019-05-26T00:01:38.515Z,14.46
2019-05-26T00:04:07.243Z,14.43
2019-05-26T00:06:36.115Z,14.50
2019-05-26T00:09:06.740Z,14.47
2019-05-26T00:11:35.459Z,14.35
2019-05-26T00:14:04.240Z,14.35
2019-05-26T00:16:32.968Z,14.34
2019-05-26T00:19:01.671Z,14.26
2019-05-26T00:21:30.445Z,14.20
2019-05-26T00:23:59.167Z,14.14
2019-05-26T00:26:27.881Z,14.07
2019-05-26T00:28:56.650Z,13.95
2019-05-26T00:31:25.381Z,13.95
2019-05-26T00:33:54.092Z,14.01
2019-05-26T00:36:22.889Z,14.10
2019-05-26T00:38:51.617Z,14.11
2019-05-26T00:41:20.432Z,14.17
2019-05-26T00:43:49.392Z,14.24
2019-05-26T00:46:18.107Z,14.16
2019-05-26T00:48:47.723Z,14.07
2019-05-26T00:51:16.498Z,13.96
2019-05-26T00:53:45.221Z,13.86
2019-05-26T00:56:14.117Z,13.73
2019-05-26T00:58:42.861Z,13.75
2019-05-26T01:01:11.587Z,13.76
2019-05-26T01:03:40.313Z,13.68
2019-05-26T01:06:09.207Z,13.43
2019-05-26T01:08:37.925Z,13.19
2019-05-26T01:11:06.651Z,12.96
2019-05-26T01:13:35.519Z,12.78
2019-05-26T01:16:04.247Z,12.68
2019-05-26T01:18:32.959Z,12.61
2019-05-26T01:21:01.755Z,12.57
2019-05-26T01:23:30.475Z,12.58
2019-05-26T01:25:59.186Z,12.62
2019-05-26T01:28:27.945Z,12.70
2019-05-26T01:30:56.661Z,12.77
2019-05-26T01:33:25.388Z,12.85
2019-05-26T01:35:54.803Z,12.87
2019-05-26T01:38:24.675Z,12.89
2019-05-26T01:40:53.555Z,12.92
2019-05-26T01:43:22.369Z,12.94
2019-05-26T01:45:51.097Z,12.93
2019-05-26T01:48:19.839Z,12.89
2019-05-26T01:50:48.708Z,12.84
2019-05-26T01:53:17.504Z,12.75
2019-05-26T01:55:46.230Z,12.67
2019-05-26T01:58:15.075Z,12.60
2019-05-26T02:00:43.792Z,12.60
2019-05-26T02:03:12.517Z,12.56
2019-05-26T02:05:41.392Z,12.55
2019-05-26T02:08:11.966Z,12.57
2019-05-26T02:10:40.548Z,12.68
2019-05-26T02:13:09.427Z,12.71
2019-05-26T02:15:38.138Z,12.64
2019-05-26T02:18:06.952Z,12.59
2019-05-26T02:20:35.910Z,12.53
2019-05-26T02:23:04.730Z,12.44
2019-05-26T02:25:33.489Z,12.36
2019-05-26T02:28:02.380Z,12.35
2019-05-26T02:30:31.092Z,12.29
2019-05-26T02:32:59.912Z,12.31
2019-05-26T02:35:28.785Z,12.22
2019-05-26T02:37:57.517Z,12.17
2019-05-26T02:40:26.441Z,12.15
2019-05-26T02:42:55.198Z,12.14
2019-05-26T02:45:24.221Z,12.10
2019-05-26T02:47:52.968Z,12.06
2019-05-26T02:50:23.418Z,12.03
2019-05-26T02:52:52.148Z,12.01
2019-05-26T02:55:21.155Z,12.01
2019-05-26T02:57:50.020Z,12.02
2019-05-26T03:00:38.108Z,12.02
2019-05-26T03:03:07.751Z,12.04
2019-05-26T03:05:37.189Z,12.08
2019-05-26T03:08:07.899Z,12.06
2019-05-26T03:10:38.192Z,12.06
2019-05-26T03:13:06.916Z,12.10
2019-05-26T03:15:36.142Z,12.12
2019-05-26T03:18:06.937Z,12.15
2019-05-26T03:20:40.798Z,12.15
2019-05-26T03:23:10.012Z,12.22
2019-05-26T03:25:40.106Z,12.27
2019-05-26T03:28:09.217Z,12.40
2019-05-26T03:30:38.449Z,12.56
2019-05-26T03:33:07.297Z,12.65
2019-05-26T03:35:36.061Z,12.67
2019-05-26T03:38:05.212Z,12.74
2019-05-26T03:40:33.975Z,12.81
2019-05-26T03:43:02.699Z,12.88
2019-05-26T03:45:43.743Z,13.07
2019-05-26T03:48:12.684Z,13.21
2019-05-26T03:50:41.424Z,13.41
2019-05-26T03:53:10.189Z,13.54
2019-05-26T03:55:38.904Z,13.69
2019-05-26T03:58:07.662Z,13.85
2019-05-26T04:00:36.422Z,14.06
2019-05-26T04:03:05.172Z,14.12
2019-05-26T04:05:33.897Z,14.32
2019-05-26T04:08:04.749Z,14.38
2019-05-26T04:10:33.143Z,14.39
2019-05-26T04:13:01.887Z,14.38
2019-05-26T04:15:30.666Z,14.39
2019-05-26T04:17:59.406Z,14.34
2019-05-26T04:20:28.122Z,14.39
2019-05-26T04:22:57.066Z,14.38
2019-05-26T04:25:25.789Z,14.38
2019-05-26T04:27:54.502Z,14.43
2019-05-26T04:30:23.303Z,14.52
2019-05-26T04:32:52.021Z,14.57
2019-05-26T04:35:20.737Z,14.58
2019-05-26T04:37:49.719Z,14.70
2019-05-26T04:40:26.365Z,14.86
2019-05-26T04:42:48.874Z,14.93
2019-05-26T04:45:18.204Z,14.96
2019-05-26T04:47:46.927Z,14.93
2019-05-26T04:50:15.855Z,14.97
2019-05-26T04:53:04.789Z,15.08
2019-05-26T04:55:15.177Z,15.27
2019-05-26T04:57:43.900Z,15.73
2019-05-26T05:00:13.708Z,16.28
2019-05-26T05:02:42.426Z,16.76
2019-05-26T05:05:11.699Z,17.09
2019-05-26T05:07:40.675Z,17.48
2019-05-26T05:10:09.582Z,17.84
2019-05-26T05:12:38.608Z,18.10
2019-05-26T05:15:09.952Z,18.29
2019-05-26T05:17:38.674Z,18.32
2019-05-26T05:20:08.231Z,18.44
2019-05-26T05:22:37.023Z,18.50
2019-05-26T05:25:14.746Z,18.46
2019-05-26T05:27:39.500Z,18.71
2019-05-26T05:30:08.878Z,18.86
2019-05-26T05:32:37.595Z,18.97
2019-05-26T05:35:10.045Z,19.39
2019-05-26T05:37:38.814Z,19.77
2019-05-26T05:40:09.563Z,19.90
2019-05-26T05:42:38.264Z,20.08
2019-05-26T05:45:08.419Z,20.25
2019-05-26T05:47:37.237Z,20.35
2019-05-26T05:50:09.225Z,20.34
2019-05-26T05:52:38.246Z,20.34
2019-05-26T05:55:07.586Z,20.38
2019-05-26T05:57:36.289Z,20.44
2019-05-26T06:00:08.349Z,20.51
2019-05-26T06:02:37.067Z,20.54
2019-05-26T06:05:06.679Z,20.60
2019-05-26T06:07:35.560Z,20.58
2019-05-26T06:10:08.548Z,20.58
2019-05-26T06:12:37.275Z,20.53
2019-05-26T06:15:13.554Z,20.61
2019-05-26T06:17:43.209Z,20.60
2019-05-26T06:20:12.536Z,20.75
2019-05-26T06:22:41.408Z,21.03
2019-05-26T06:25:10.253Z,20.98
2019-05-26T06:27:39.022Z,21.12
2019-05-26T06:30:10.181Z,21.30
2019-05-26T06:32:38.912Z,21.41
2019-05-26T06:35:07.733Z,21.23
2019-05-26T06:37:36.595Z,21.37
2019-05-26T06:40:09.162Z,21.62
2019-05-26T06:42:39.352Z,21.93
2019-05-26T06:45:08.900Z,22.38
2019-05-26T06:47:37.607Z,22.74
2019-05-26T06:50:07.021Z,22.86
2019-05-26T06:52:35.977Z,23.14
2019-05-26T06:55:05.913Z,23.43
2019-05-26T06:57:34.626Z,23.76
2019-05-26T07:00:04.220Z,23.83
2019-05-26T07:02:32.957Z,23.88
2019-05-26T07:05:01.681Z,24.35
2019-05-26T07:07:31.080Z,24.74
2019-05-26T07:09:59.917Z,24.50
2019-05-26T07:12:28.632Z,24.42
2019-05-26T07:14:57.433Z,24.61
2019-05-26T07:17:28.794Z,24.99
2019-05-26T07:19:57.510Z,24.99
2019-05-26T07:22:26.317Z,25.12
2019-05-26T07:24:55.036Z,25.48
2019-05-26T07:27:23.752Z,25.72
2019-05-26T07:29:52.639Z,25.63
2019-05-26T07:32:21.360Z,25.75
2019-05-26T07:34:50.088Z,25.76
2019-05-26T07:37:18.939Z,25.95
2019-05-26T07:39:48.888Z,26.01
2019-05-26T07:42:17.607Z,26.07
2019-05-26T07:44:46.373Z,26.43
2019-05-26T07:47:15.119Z,26.43
2019-05-26T07:49:43.836Z,26.32
2019-05-26T07:52:12.661Z,26.57
2019-05-26T07:54:41.367Z,26.96
2019-05-26T07:57:10.127Z,26.82
2019-05-26T07:59:38.979Z,26.86
2019-05-26T08:02:07.695Z,26.85
2019-05-26T08:04:36.448Z,27.37
2019-05-26T08:07:05.825Z,27.95
2019-05-26T08:09:35.474Z,27.84
2019-05-26T08:12:04.433Z,27.37
2019-05-26T08:14:33.229Z,27.53
2019-05-26T08:17:03.130Z,28.21
2019-05-26T08:19:31.899Z,28.09
2019-05-26T08:22:00.774Z,28.30
2019-05-26T08:24:29.500Z,28.78
2019-05-26T08:26:58.218Z,29.22
2019-05-26T08:29:28.616Z,29.42
2019-05-26T08:31:57.326Z,29.22
2019-05-26T08:34:26.103Z,28.88
2019-05-26T08:36:55.098Z,28.63
2019-05-26T08:39:23.814Z,28.37
2019-05-26T08:41:52.536Z,28.67
2019-05-26T08:44:22.847Z,28.62
2019-05-26T08:46:51.564Z,28.89
2019-05-26T08:49:20.283Z,29.33
2019-05-26T08:51:49.129Z,29.58
2019-05-26T08:54:17.842Z,29.56
2019-05-26T08:56:46.566Z,29.86
2019-05-26T08:59:15.439Z,29.92
2019-05-26T09:01:44.157Z,29.88
2019-05-26T09:04:12.884Z,29.68
2019-05-26T09:06:41.739Z,29.95
2019-05-26T09:09:10.508Z,29.74
2019-05-26T09:11:39.179Z,29.39
2019-05-26T09:14:08.116Z,29.58
2019-05-26T09:16:36.833Z,29.18
2019-05-26T09:19:05.548Z,29.23
2019-05-26T09:21:34.436Z,29.18
2019-05-26T09:24:03.157Z,29.24
2019-05-26T09:26:31.885Z,29.11
2019-05-26T09:29:00.652Z,28.94
2019-05-26T09:31:29.373Z,28.78
2019-05-26T09:33:58.099Z,28.82
2019-05-26T09:36:26.891Z,28.79
2019-05-26T09:38:55.608Z,28.98
2019-05-26T09:41:24.332Z,29.06
2019-05-26T09:43:53.388Z,29.25
2019-05-26T09:46:22.109Z,29.27
2019-05-26T09:48:50.833Z,29.68
2019-05-26T09:51:19.621Z,30.11
2019-05-26T09:54:00.754Z,30.51
2019-05-26T09:56:18.795Z,29.62
2019-05-26T09:58:47.582Z,29.81
2019-05-26T10:01:16.300Z,29.94
2019-05-26T10:03:45.033Z,29.55
2019-05-26T10:06:13.770Z,30.03
2019-05-26T10:08:42.495Z,30.26
2019-05-26T10:11:11.212Z,30.07
2019-05-26T10:13:40.026Z,30.02
2019-05-26T10:16:08.857Z,30.15
2019-05-26T10:18:37.581Z,30.22
2019-05-26T10:21:06.334Z,30.24
2019-05-26T10:23:35.046Z,30.14
2019-05-26T10:26:03.877Z,30.30
2019-05-26T10:28:32.827Z,30.43
2019-05-26T10:31:01.681Z,30.58
2019-05-26T10:33:30.408Z,30.57
2019-05-26T10:35:59.302Z,30.63
2019-05-26T10:38:28.028Z,30.94
2019-05-26T10:40:56.751Z,31.27
2019-05-26T10:43:25.628Z,31.55
2019-05-26T10:45:54.341Z,31.45
2019-05-26T10:48:23.058Z,31.33
2019-05-26T10:50:51.952Z,31.49
2019-05-26T10:53:20.738Z,31.60
2019-05-26T10:55:49.566Z,31.53
2019-05-26T10:58:18.343Z,31.18
2019-05-26T11:00:47.065Z,31.23
2019-05-26T11:03:15.794Z,31.00
2019-05-26T11:05:44.603Z,31.07
2019-05-26T11:08:13.339Z,31.25
2019-05-26T11:10:42.168Z,31.67
2019-05-26T11:13:11.047Z,31.75
2019-05-26T11:15:39.754Z,31.49
2019-05-26T11:18:10.473Z,31.43
2019-05-26T11:20:39.302Z,31.35
2019-05-26T11:23:07.992Z,31.53
2019-05-26T11:25:36.719Z,31.77
2019-05-26T11:28:05.938Z,31.77
2019-05-26T11:30:34.662Z,32.00
2019-05-26T11:33:03.378Z,31.72
2019-05-26T11:35:32.155Z,31.40
2019-05-26T11:38:00.883Z,31.62
2019-05-26T11:40:29.610Z,32.10
2019-05-26T11:42:58.480Z,32.30
2019-05-26T11:45:27.191Z,32.55
2019-05-26T11:47:55.914Z,32.98
2019-05-26T11:50:24.804Z,32.47
2019-05-26T11:52:53.523Z,31.77
2019-05-26T11:55:22.355Z,31.26
2019-05-26T11:57:51.132Z,31.05
2019-05-26T12:00:20.445Z,31.22
2019-05-26T12:02:49.167Z,31.60
2019-05-26T12:05:18.198Z,31.96
2019-05-26T12:07:46.919Z,32.35
2019-05-26T12:10:15.941Z,32.66
2019-05-26T12:12:44.810Z,32.85
2019-05-26T12:15:14.423Z,32.66
2019-05-26T12:17:43.144Z,31.81
2019-05-26T12:20:12.284Z,31.04
2019-05-26T12:22:41.010Z,30.64
2019-05-26T12:25:10.828Z,30.95
2019-05-26T12:27:39.649Z,30.89
2019-05-26T12:30:09.875Z,30.75
2019-05-26T12:32:38.596Z,30.91
2019-05-26T12:35:09.305Z,30.81
2019-05-26T12:37:38.033Z,31.28
2019-05-26T12:40:07.655Z,31.76
2019-05-26T12:42:39.428Z,32.04
2019-05-26T12:45:09.344Z,32.05
2019-05-26T12:47:38.265Z,32.06
2019-05-26T12:50:08.826Z,32.67
2019-05-26T12:52:37.834Z,33.22
2019-05-26T12:55:09.364Z,33.53
2019-05-26T12:57:37.741Z,33.59
2019-05-26T13:00:08.912Z,33.26
2019-05-26T13:02:37.628Z,33.12
2019-05-26T13:05:07.905Z,33.11
2019-05-26T13:07:36.737Z,32.91
2019-05-26T13:10:09.515Z,33.26
2019-05-26T13:12:38.376Z,33.74
2019-05-26T13:15:11.487Z,33.77
2019-05-26T13:17:40.212Z,33.74
2019-05-26T13:20:10.508Z,33.51
2019-05-26T13:22:40.897Z,33.22
2019-05-26T13:25:10.970Z,33.36
2019-05-26T13:27:39.975Z,33.31
2019-05-26T13:30:11.721Z,33.51
2019-05-26T13:32:40.446Z,33.70
2019-05-26T13:35:09.787Z,33.69
2019-05-26T13:37:38.518Z,33.75
2019-05-26T13:40:08.784Z,33.89
2019-05-26T13:42:37.625Z,33.64
2019-05-26T13:45:21.217Z,32.84
2019-05-26T13:47:39.042Z,32.61
2019-05-26T13:50:08.597Z,32.52
2019-05-26T13:52:37.510Z,32.48
2019-05-26T13:55:09.046Z,32.19
2019-05-26T13:57:38.549Z,32.06
2019-05-26T14:00:09.534Z,31.63
2019-05-26T14:02:38.433Z,31.35
2019-05-26T14:05:08.383Z,30.99
2019-05-26T14:07:37.118Z,30.77
2019-05-26T14:10:06.864Z,30.80
2019-05-26T14:12:35.924Z,31.15
2019-05-26T14:15:07.003Z,31.47
2019-05-26T14:17:37.845Z,31.80
2019-05-26T14:20:08.507Z,32.02
2019-05-26T14:22:37.223Z,32.28
2019-05-26T14:25:07.887Z,32.28
2019-05-26T14:27:36.911Z,32.23
2019-05-26T14:30:07.131Z,32.36
2019-05-26T14:32:35.868Z,32.51
2019-05-26T14:35:06.499Z,32.76
2019-05-26T14:37:35.286Z,32.88
2019-05-26T14:40:06.135Z,32.65
2019-05-26T14:42:34.923Z,32.35
2019-05-26T14:45:04.746Z,32.25
2019-05-26T14:47:33.453Z,32.46
2019-05-26T14:50:02.442Z,32.45
2019-05-26T14:52:31.159Z,32.55
2019-05-26T14:54:59.880Z,32.57
2019-05-26T14:57:31.046Z,31.88
2019-05-26T14:59:59.261Z,31.44
2019-05-26T15:02:27.974Z,30.76
2019-05-26T15:04:56.813Z,30.18
2019-05-26T15:07:25.633Z,29.55
2019-05-26T15:09:54.344Z,29.23
2019-05-26T15:12:23.333Z,29.14
2019-05-26T15:14:52.083Z,29.17
2019-05-26T15:17:20.825Z,29.33
2019-05-26T15:19:49.681Z,29.57
2019-05-26T15:22:18.399Z,29.70
2019-05-26T15:24:47.106Z,29.79
2019-05-26T15:27:16.084Z,29.83
2019-05-26T15:29:44.814Z,29.89
2019-05-26T15:32:13.539Z,29.93
2019-05-26T15:34:42.434Z,29.79
2019-05-26T15:37:11.147Z,29.53
2019-05-26T15:39:39.875Z,29.38
2019-05-26T15:42:08.759Z,29.32
2019-05-26T15:44:37.485Z,29.02
2019-05-26T15:47:06.500Z,28.81
2019-05-26T15:49:35.253Z,28.51
2019-05-26T15:52:03.973Z,28.33
2019-05-26T15:54:32.702Z,28.25
2019-05-26T15:57:01.462Z,28.16
2019-05-26T15:59:30.187Z,27.91
2019-05-26T16:01:58.969Z,27.80
2019-05-26T16:04:27.825Z,27.66
2019-05-26T16:06:56.546Z,27.52
2019-05-26T16:09:25.350Z,27.64
2019-05-26T16:11:54.191Z,27.60
2019-05-26T16:14:22.910Z,27.49
2019-05-26T16:16:51.656Z,27.44
2019-05-26T16:19:20.472Z,27.44
2019-05-26T16:21:49.191Z,27.32
2019-05-26T16:24:17.959Z,27.24
2019-05-26T16:26:47.037Z,27.10
2019-05-26T16:29:15.899Z,26.86
2019-05-26T16:31:44.629Z,26.75
2019-05-26T16:34:13.385Z,26.60
2019-05-26T16:36:42.107Z,26.47
2019-05-26T16:39:10.820Z,26.56
2019-05-26T16:41:39.689Z,26.60
2019-05-26T16:44:08.410Z,26.51
2019-05-26T16:46:37.141Z,26.45
2019-05-26T16:49:06.128Z,26.34
2019-05-26T16:51:34.854Z,26.14
2019-05-26T16:54:03.581Z,26.08
2019-05-26T16:56:32.885Z,25.98
2019-05-26T16:59:01.611Z,25.93
2019-05-26T17:01:30.324Z,25.87
2019-05-26T17:03:59.147Z,25.83
2019-05-26T17:06:27.831Z,25.75
2019-05-26T17:08:56.549Z,25.51
2019-05-26T17:11:25.411Z,25.40
2019-05-26T17:13:54.165Z,25.24
2019-05-26T17:16:22.881Z,25.07
2019-05-26T17:18:51.771Z,25.00
2019-05-26T17:21:20.481Z,24.86
2019-05-26T17:23:49.214Z,24.72
2019-05-26T17:26:18.296Z,24.56
2019-05-26T17:28:47.025Z,24.26
2019-05-26T17:31:15.903Z,23.98
2019-05-26T17:33:44.854Z,23.71
2019-05-26T17:36:13.579Z,23.42
2019-05-26T17:38:42.301Z,23.27
2019-05-26T17:41:11.254Z,23.08
2019-05-26T17:43:39.971Z,22.88
2019-05-26T17:46:08.690Z,22.71
2019-05-26T17:48:37.569Z,22.58
2019-05-26T17:51:06.292Z,22.43
2019-05-26T17:53:35.020Z,22.33
2019-05-26T17:56:03.904Z,22.18
2019-05-26T17:58:32.631Z,22.01
2019-05-26T18:01:01.348Z,21.93
2019-05-26T18:03:30.220Z,21.82
2019-05-26T18:05:58.955Z,21.62
2019-05-26T18:08:27.685Z,21.49
2019-05-26T18:10:56.538Z,21.36
2019-05-26T18:13:25.263Z,21.24
2019-05-26T18:15:54.019Z,21.22
2019-05-26T18:18:22.915Z,21.16
2019-05-26T18:20:51.635Z,21.06
2019-05-26T18:23:20.354Z,21.05
2019-05-26T18:25:49.247Z,21.02
2019-05-26T18:28:17.965Z,20.98
2019-05-26T18:30:46.679Z,20.99
2019-05-26T18:33:15.642Z,20.93
2019-05-26T18:35:44.371Z,20.87
2019-05-26T18:38:13.191Z,20.71
2019-05-26T18:40:42.246Z,20.59
2019-05-26T18:43:10.961Z,20.53
2019-05-26T18:45:39.715Z,20.44
2019-05-26T18:48:08.661Z,20.37
2019-05-26T18:50:37.386Z,20.31
2019-05-26T18:53:06.160Z,20.27
2019-05-26T18:55:34.943Z,20.21
2019-05-26T18:58:03.791Z,20.13
2019-05-26T19:00:32.778Z,20.17
2019-05-26T19:03:01.667Z,20.07
2019-05-26T19:05:34.813Z,20.10
2019-05-26T19:08:00.836Z,20.12
2019-05-26T19:10:29.648Z,20.06
2019-05-26T19:12:58.369Z,20.02
2019-05-26T19:15:27.381Z,19.93
2019-05-26T19:17:56.387Z,19.92
2019-05-26T19:20:25.109Z,19.95
2019-05-26T19:22:53.824Z,19.97
2019-05-26T19:25:22.785Z,19.94
2019-05-26T19:27:51.515Z,19.96
2019-05-26T19:30:20.640Z,19.96
2019-05-26T19:32:49.410Z,19.94
2019-05-26T19:35:18.186Z,19.92
2019-05-26T19:37:46.918Z,19.84
2019-05-26T19:40:16.006Z,19.83
2019-05-26T19:42:44.814Z,19.85
2019-05-26T19:45:13.638Z,19.85
2019-05-26T19:47:42.509Z,19.82
2019-05-26T19:50:11.336Z,19.89
2019-05-26T19:52:40.088Z,19.97
2019-05-26T19:55:09.080Z,19.99
2019-05-26T19:57:37.793Z,19.99
2019-05-26T20:00:12.756Z,20.00
2019-05-26T20:02:41.653Z,20.02
2019-05-26T20:05:10.666Z,20.08
2019-05-26T20:07:39.381Z,20.06
2019-05-26T20:10:09.863Z,19.99
2019-05-26T20:12:38.576Z,19.95
2019-05-26T20:15:08.797Z,19.92
2019-05-26T20:17:37.697Z,19.86
2019-05-26T20:20:08.792Z,19.82
2019-05-26T20:22:37.525Z,19.79
2019-05-26T20:25:10.671Z,19.75
2019-05-26T20:27:39.473Z,19.72
2019-05-26T20:30:08.587Z,19.63
2019-05-26T20:32:37.554Z,19.53
2019-05-26T20:35:10.542Z,19.42
2019-05-26T20:37:39.313Z,19.36
2019-05-26T20:40:08.586Z,19.32
2019-05-26T20:42:37.307Z,19.27
2019-05-26T20:45:07.625Z,19.17
2019-05-26T20:47:36.519Z,19.02
2019-05-26T20:50:08.943Z,18.87
2019-05-26T20:52:37.772Z,18.77
2019-05-26T20:55:07.820Z,18.58
2019-05-26T20:57:36.532Z,18.52
2019-05-26T21:00:13.873Z,18.40
2019-05-26T21:02:43.248Z,18.31
2019-05-26T21:05:12.266Z,18.21
2019-05-26T21:07:41.031Z,18.14
2019-05-26T21:10:10.059Z,18.29
2019-05-26T21:12:38.774Z,18.27
2019-05-26T21:15:07.942Z,18.22
2019-05-26T21:17:36.662Z,18.09
2019-05-26T21:20:10.452Z,18.01
2019-05-26T21:22:39.497Z,17.88
2019-05-26T21:25:08.705Z,17.79
2019-05-26T21:27:37.436Z,17.64
2019-05-26T21:30:08.506Z,17.53
2019-05-26T21:32:37.208Z,17.40
2019-05-26T21:35:10.257Z,17.31
2019-05-26T21:37:39.084Z,17.21
2019-05-26T21:40:09.474Z,17.15
2019-05-26T21:42:38.189Z,17.21
2019-05-26T21:45:07.763Z,17.31
2019-05-26T21:47:36.446Z,17.52
2019-05-26T21:50:08.167Z,17.44
2019-05-26T21:52:36.924Z,17.27
2019-05-26T21:55:07.219Z,17.16
2019-05-26T21:57:36.040Z,17.06
2019-05-26T22:00:09.362Z,16.99
2019-05-26T22:02:38.076Z,17.13
2019-05-26T22:05:08.104Z,17.03
2019-05-26T22:07:36.856Z,16.92
2019-05-26T22:10:07.140Z,16.86
2019-05-26T22:12:35.860Z,16.80
2019-05-26T22:15:06.958Z,16.77
2019-05-26T22:17:35.694Z,16.76
2019-05-26T22:20:08.255Z,16.84
2019-05-26T22:22:37.025Z,16.87
2019-05-26T22:25:06.949Z,16.85
2019-05-26T22:27:35.664Z,16.81
2019-05-26T22:30:06.255Z,16.73
2019-05-26T22:32:35.063Z,16.67
2019-05-26T22:35:07.606Z,16.62
2019-05-26T22:37:36.483Z,16.60
2019-05-26T22:40:06.936Z,16.57
2019-05-26T22:42:35.654Z,16.55
2019-05-26T22:45:09.486Z,16.49
2019-05-26T22:47:38.191Z,16.43
2019-05-26T22:50:09.683Z,16.41
2019-05-26T22:52:38.557Z,16.43
2019-05-26T22:55:08.976Z,16.45
2019-05-26T22:57:37.666Z,16.44
2019-05-26T23:00:10.944Z,16.45
2019-05-26T23:02:39.657Z,16.46
2019-05-26T23:05:08.777Z,16.52
2019-05-26T23:07:37.651Z,16.52
2019-05-26T23:10:07.768Z,16.47
2019-05-26T23:12:36.491Z,16.31
2019-05-26T23:15:08.911Z,15.99
2019-05-26T23:17:37.651Z,15.85
2019-05-26T23:20:07.570Z,15.61
2019-05-26T23:22:36.449Z,15.49
2019-05-26T23:25:06.966Z,15.44
2019-05-26T23:27:35.679Z,15.44
2019-05-26T23:30:08.936Z,15.42
2019-05-26T23:32:37.645Z,15.44
2019-05-26T23:35:07.371Z,15.50
2019-05-26T23:37:36.518Z,15.57
2019-05-26T23:40:08.569Z,15.60
2019-05-26T23:42:37.349Z,15.60
2019-05-26T23:45:09.171Z,15.61
2019-05-26T23:47:37.938Z,15.64
2019-05-26T23:50:09.560Z,15.61
2019-05-26T23:52:38.416Z,15.57
2019-05-26T23:55:10.640Z,15.59
2019-05-26T23:57:39.441Z,15.58
